Time;durP1;ratioP1;P1;durP2;ratioP2;P2;SDS_P1;SDS_P2;PMS_P1;PMS_P2;Temp;Humidity;BMP_temperature;BMP_pressure;BME280_temperature;BME280_humidity;BME280_pressure;Samples;Min_cycle;Max_cycle;Signal;HPM_P1;HPM_P2
2023/06/18 00:01:03;;;;;;;24.63;22.23;;;15.50;99.90;;;;;;5019899;28;20468;-73
2023/06/18 00:03:29;;;;;;;26.98;24.20;;;15.40;99.90;;;;;;5002005;28;20068;-74
2023/06/18 00:05:55;;;;;;;25.75;23.35;;;15.30;99.90;;;;;;4966361;28;20041;-73
2023/06/18 00:08:21;;;;;;;27.13;24.42;;;15.20;99.90;;;;;;5012465;28;20049;-74
2023/06/18 00:10:47;;;;;;;27.88;25.25;;;15.20;99.90;;;;;;5027748;28;20176;-73
2023/06/18 00:13:13;;;;;;;28.95;26.25;;;15.10;99.90;;;;;;5039256;28;20081;-73
2023/06/18 00:15:39;;;;;;;28.30;25.50;;;15.00;99.90;;;;;;5014679;28;20041;-74
2023/06/18 00:18:05;;;;;;;30.15;27.42;;;14.90;99.90;;;;;;5042270;28;20375;-74
2023/06/18 00:20:32;;;;;;;26.88;24.35;;;14.80;99.90;;;;;;5012146;28;20683;-74
2023/06/18 00:22:59;;;;;;;27.83;25.23;;;14.90;99.90;;;;;;5016580;28;20049;-74
2023/06/18 00:25:25;;;;;;;28.02;25.33;;;15.00;99.90;;;;;;5001030;28;20052;-74
2023/06/18 00:27:51;;;;;;;26.70;24.30;;;14.90;99.90;;;;;;5010700;28;20049;-75
2023/06/18 00:30:17;;;;;;;29.50;26.80;;;15.00;99.90;;;;;;5007062;28;20118;-74
2023/06/18 00:32:44;;;;;;;29.80;27.00;;;15.00;99.90;;;;;;4997611;28;20040;-74
2023/06/18 00:35:17;;;;;;;33.03;29.73;;;15.00;99.90;;;;;;5029644;28;20123;-74
2023/06/18 00:37:43;;;;;;;30.15;27.35;;;15.10;99.90;;;;;;5019623;28;20653;-74
2023/06/18 00:40:14;;;;;;;30.88;27.85;;;15.00;99.90;;;;;;5022192;28;20053;-75
2023/06/18 00:42:44;;;;;;;37.83;33.65;;;15.00;99.90;;;;;;5029351;28;20056;-75
2023/06/18 00:45:11;;;;;;;31.08;27.98;;;15.00;99.90;;;;;;5030061;28;20041;-74
2023/06/18 00:47:44;;;;;;;33.05;29.83;;;15.00;99.90;;;;;;5027015;28;20403;-74
2023/06/18 00:50:14;;;;;;;34.25;30.85;;;15.00;99.90;;;;;;5029584;28;20080;-74
2023/06/18 00:52:44;;;;;;;38.70;34.80;;;15.00;99.90;;;;;;5013737;28;20057;-74
2023/06/18 00:55:17;;;;;;;40.53;36.53;;;14.90;99.90;;;;;;5028716;28;20504;-74
2023/06/18 00:57:49;;;;;;;35.20;31.80;;;15.00;99.90;;;;;;5025864;28;20044;-74
2023/06/18 01:00:16;;;;;;;34.08;30.73;;;15.00;99.90;;;;;;5017466;28;20131;-75
2023/06/18 01:02:49;;;;;;;37.38;33.63;;;15.00;99.90;;;;;;5003487;28;20138;-74
2023/06/18 01:05:19;;;;;;;38.97;35.13;;;15.00;99.90;;;;;;5034635;28;20037;-74
2023/06/18 01:07:48;;;;;;;38.42;34.72;;;15.10;99.90;;;;;;5026369;28;20057;-74
2023/06/18 01:10:15;;;;;;;38.65;34.88;;;15.10;99.90;;;;;;5031162;28;20048;-74
2023/06/18 01:12:48;;;;;;;38.30;34.40;;;15.10;99.90;;;;;;5045007;28;20637;-74
2023/06/18 01:15:18;;;;;;;40.88;36.72;;;15.10;99.90;;;;;;5003640;28;20045;-74
2023/06/18 01:17:48;;;;;;;34.55;31.15;;;15.10;99.90;;;;;;5008716;28;20056;-74
2023/06/18 01:20:17;;;;;;;37.90;34.20;;;15.20;99.90;;;;;;5005658;28;20045;-74
2023/06/18 01:23:06;;;;;;;39.53;35.70;;;15.20;99.90;;;;;;5023317;28;20053;-75
2023/06/18 01:25:32;;;;;;;41.85;37.53;;;15.10;99.90;;;;;;5025878;28;20097;-74
2023/06/18 01:28:07;;;;;;;41.78;37.53;;;15.20;99.90;;;;;;5012256;28;20045;-74
2023/06/18 01:30:36;;;;;;;40.75;36.55;;;15.10;99.90;;;;;;5025000;28;21107;-74
2023/06/18 01:33:03;;;;;;;38.63;34.73;;;15.10;99.90;;;;;;5033071;28;20088;-77
2023/06/18 01:35:29;;;;;;;38.80;35.03;;;15.00;99.90;;;;;;5023543;28;20666;-74
2023/06/18 01:38:01;;;;;;;37.47;33.58;;;15.00;99.90;;;;;;5028256;28;20057;-74
2023/06/18 01:40:36;;;;;;;37.35;33.85;;;15.10;99.90;;;;;;5032002;28;20556;-81
2023/06/18 01:43:22;;;;;;;40.78;36.53;;;15.10;99.90;;;;;;5028375;28;20041;-81
2023/06/18 01:45:54;;;;;;;39.72;35.42;;;15.10;99.90;;;;;;5026406;28;21184;-81
2023/06/18 01:48:22;;;;;;;39.13;35.22;;;15.10;99.90;;;;;;5005249;28;20084;-81
2023/06/18 01:50:50;;;;;;;37.83;34.08;;;15.10;99.90;;;;;;5028926;28;20037;-74
2023/06/18 01:53:18;;;;;;;40.10;36.05;;;15.10;99.90;;;;;;5043316;28;20052;-74
2023/06/18 01:55:45;;;;;;;39.35;35.40;;;15.10;99.90;;;;;;5005432;28;20123;-74
2023/06/18 01:58:16;;;;;;;43.05;37.78;;;15.10;99.90;;;;;;5025763;28;20624;-75
2023/06/18 02:00:42;;;;;;;41.13;36.67;;;15.00;99.90;;;;;;5049496;28;20053;-74
2023/06/18 02:03:08;;;;;;;34.72;31.52;;;15.00;99.90;;;;;;5010626;28;20092;-74
2023/06/18 02:05:35;;;;;;;34.53;31.15;;;14.90;99.90;;;;;;4990011;28;20831;-81
2023/06/18 02:08:00;;;;;;;36.58;32.95;;;14.90;99.90;;;;;;5041154;28;20047;-80
2023/06/18 02:10:26;;;;;;;36.67;33.08;;;14.80;99.90;;;;;;5044035;28;20045;-74
2023/06/18 02:12:52;;;;;;;38.38;34.47;;;14.90;99.90;;;;;;5024923;28;20041;-74
2023/06/18 02:15:20;;;;;;;36.30;32.60;;;14.90;99.90;;;;;;5026533;28;20507;-75
2023/06/18 02:17:46;;;;;;;37.35;33.70;;;14.90;99.90;;;;;;5009783;28;20037;-75
2023/06/18 02:20:16;;;;;;;40.33;36.13;;;15.00;99.90;;;;;;5012137;28;20045;-74
2023/06/18 02:22:42;;;;;;;;;;;14.90;99.90;;;;;;5008311;28;20537;-74
2023/06/18 02:25:08;;;;;;;34.03;30.63;;;14.90;99.90;;;;;;5006298;28;19978;-75
2023/06/18 02:27:34;;;;;;;34.38;30.95;;;14.80;99.90;;;;;;5028263;28;20045;-74
2023/06/18 02:30:01;;;;;;;37.97;34.10;;;14.80;99.90;;;;;;5022287;28;20060;-75
2023/06/18 02:32:28;;;;;;;40.45;36.28;;;14.80;99.90;;;;;;5024208;28;20526;-74
2023/06/18 02:34:58;;;;;;;33.63;30.42;;;14.70;99.90;;;;;;5023168;28;20053;-75
2023/06/18 02:37:27;;;;;;;43.30;38.63;;;14.70;99.90;;;;;;5023325;28;20057;-75
2023/06/18 02:39:54;;;;;;;33.95;30.70;;;14.60;99.90;;;;;;5023547;28;20689;-74
2023/06/18 02:42:20;;;;;;;30.95;28.00;;;14.50;99.90;;;;;;5012316;28;20071;-74
2023/06/18 02:44:47;;;;;;;27.80;24.92;;;14.50;99.90;;;;;;4995766;28;20124;-74
2023/06/18 02:47:12;;;;;;;28.90;26.00;;;14.40;99.90;;;;;;5015755;28;20505;-75
2023/06/18 02:49:38;;;;;;;33.35;30.17;;;14.40;99.90;;;;;;5028697;28;20044;-75
2023/06/18 02:52:05;;;;;;;33.80;30.38;;;14.30;99.90;;;;;;4998345;28;20045;-75
2023/06/18 02:54:30;;;;;;;30.85;28.02;;;14.20;99.90;;;;;;5015846;28;20087;-74
2023/06/18 02:56:56;;;;;;;31.52;28.50;;;14.00;99.90;;;;;;4999686;28;20073;-74
2023/06/18 02:59:26;;;;;;;31.55;28.52;;;13.90;99.90;;;;;;5012700;28;20041;-74
2023/06/18 03:01:53;;;;;;;37.17;32.40;;;13.90;99.90;;;;;;5031680;28;20049;-74
2023/06/18 03:04:19;;;;;;;31.90;28.88;;;13.90;99.90;;;;;;4996665;28;20049;-74
2023/06/18 03:06:44;;;;;;;29.02;26.27;;;13.90;99.90;;;;;;5048409;28;20777;-74
2023/06/18 03:09:10;;;;;;;30.20;27.33;;;13.90;99.90;;;;;;5011960;28;20180;-73
2023/06/18 03:11:36;;;;;;;29.13;26.13;;;13.90;99.90;;;;;;5031189;28;20052;-74
2023/06/18 03:14:02;;;;;;;33.20;30.00;;;13.90;99.90;;;;;;5031382;28;20056;-74
2023/06/18 03:16:31;;;;;;;30.02;27.13;;;13.90;99.90;;;;;;5029958;28;20138;-74
2023/06/18 03:18:56;;;;;;;33.58;30.25;;;13.70;99.90;;;;;;5028128;28;20122;-74
2023/06/18 03:21:22;;;;;;;35.70;31.98;;;13.60;99.90;;;;;;5029267;28;20548;-75
2023/06/18 03:23:49;;;;;;;39.53;35.55;;;13.50;99.90;;;;;;4977331;28;20045;-74
2023/06/18 03:26:15;;;;;;;36.95;33.17;;;13.40;99.90;;;;;;5007360;28;20067;-74
2023/06/18 03:28:41;;;;;;;38.17;34.38;;;13.40;99.90;;;;;;5011872;28;20121;-74
2023/06/18 03:31:08;;;;;;;40.45;36.33;;;13.30;99.90;;;;;;5024581;28;20061;-74
2023/06/18 03:33:33;;;;;;;41.35;37.05;;;13.30;99.90;;;;;;4997783;28;20393;-75
2023/06/18 03:36:00;;;;;;;39.67;35.63;;;13.30;99.90;;;;;;5015773;28;20045;-75
2023/06/18 03:38:27;;;;;;;45.25;40.33;;;13.30;99.90;;;;;;5018314;28;20048;-74
2023/06/18 03:40:53;;;;;;;47.88;42.50;;;13.40;99.90;;;;;;5029032;28;20249;-74
2023/06/18 03:43:19;;;;;;;47.92;41.55;;;13.50;99.90;;;;;;5032416;28;20275;-74
2023/06/18 03:45:45;;;;;;;47.80;42.28;;;13.50;99.90;;;;;;5029572;28;20052;-74
2023/06/18 03:48:14;;;;;;;52.45;44.80;;;13.60;99.90;;;;;;5029358;28;20056;-73
2023/06/18 03:50:40;;;;;;;50.72;44.65;;;13.60;99.90;;;;;;5030590;28;20570;-73
2023/06/18 03:53:06;;;;;;;54.30;43.63;;;13.70;99.90;;;;;;5008069;28;20432;-73
2023/06/18 03:55:32;;;;;;;55.65;47.40;;;13.80;99.90;;;;;;5004019;28;20049;-73
2023/06/18 03:57:58;;;;;;;48.13;42.95;;;13.90;99.90;;;;;;5008172;28;20049;-73
2023/06/18 04:00:23;;;;;;;51.40;45.17;;;14.00;99.90;;;;;;4993444;28;20083;-74
2023/06/18 04:02:52;;;;;;;57.58;46.15;;;14.10;99.90;;;;;;4971892;28;20052;-74
2023/06/18 04:05:17;;;;;;;53.28;44.88;;;14.10;99.90;;;;;;4993970;28;20040;-74
2023/06/18 04:07:43;;;;;;;56.80;47.58;;;14.10;99.90;;;;;;5009742;28;20452;-74
2023/06/18 04:10:09;;;;;;;51.78;44.78;;;14.20;99.90;;;;;;4993547;28;20080;-74
2023/06/18 04:12:35;;;;;;;57.28;48.00;;;14.30;99.90;;;;;;4996031;28;20041;-74
2023/06/18 04:15:01;;;;;;;52.75;46.60;;;14.30;99.90;;;;;;5024074;28;20175;-74
2023/06/18 04:17:27;;;;;;;53.38;45.67;;;14.40;99.90;;;;;;5011864;28;20045;-74
2023/06/18 04:19:52;;;;;;;51.17;44.75;;;14.50;99.90;;;;;;5007457;28;20139;-74
2023/06/18 04:22:18;;;;;;;53.83;46.53;;;14.50;99.90;;;;;;5024318;28;20045;-74
2023/06/18 04:24:44;;;;;;;50.45;45.05;;;14.50;99.90;;;;;;4993847;28;20037;-74
2023/06/18 04:27:10;;;;;;;50.65;44.63;;;14.50;99.90;;;;;;5006914;28;20047;-74
2023/06/18 04:29:36;;;;;;;51.25;43.90;;;14.60;99.90;;;;;;5042572;28;20076;-74
2023/06/18 04:32:02;;;;;;;52.45;45.30;;;14.60;99.90;;;;;;5008898;28;20040;-74
2023/06/18 04:34:28;;;;;;;52.22;45.10;;;14.70;99.90;;;;;;5022792;28;20059;-74
2023/06/18 04:36:54;;;;;;;49.00;43.47;;;14.70;99.90;;;;;;5024755;28;20059;-75
2023/06/18 04:39:20;;;;;;;49.00;43.30;;;14.70;99.90;;;;;;5021210;28;20056;-74
2023/06/18 04:41:46;;;;;;;47.17;42.13;;;14.80;99.90;;;;;;5008537;28;20084;-74
2023/06/18 04:44:13;;;;;;;53.13;45.38;;;14.90;99.90;;;;;;5008458;28;20068;-74
2023/06/18 04:46:40;;;;;;;47.67;41.92;;;14.90;99.90;;;;;;4991378;28;20046;-74
2023/06/18 04:49:06;;;;;;;47.17;41.33;;;14.90;99.90;;;;;;5026724;28;20120;-74
2023/06/18 04:51:31;;;;;;;47.67;41.85;;;15.00;99.90;;;;;;5025789;28;20160;-74
2023/06/18 04:53:57;;;;;;;48.30;42.92;;;15.00;99.90;;;;;;5028814;28;20049;-73
2023/06/18 04:56:23;;;;;;;48.38;42.83;;;15.00;99.90;;;;;;5023725;28;20106;-74
2023/06/18 04:58:48;;;;;;;46.97;41.83;;;15.00;99.90;;;;;;5027435;28;20052;-74
2023/06/18 05:01:14;;;;;;;49.10;43.70;;;15.10;99.90;;;;;;4992571;28;20048;-74
2023/06/18 05:03:43;;;;;;;51.95;43.50;;;15.20;99.90;;;;;;5025941;28;20044;-74
2023/06/18 05:06:15;;;;;;;52.30;43.70;;;15.20;99.90;;;;;;5002161;28;20080;-74
2023/06/18 05:08:46;;;;;;;49.92;43.20;;;15.20;99.90;;;;;;5040942;28;20052;-74
2023/06/18 05:11:12;;;;;;;50.80;44.95;;;15.20;99.90;;;;;;4990327;28;20491;-74
2023/06/18 05:13:44;;;;;;;46.67;41.70;;;15.30;99.90;;;;;;5023060;28;20177;-74
2023/06/18 05:16:10;;;;;;;52.45;45.08;;;15.30;99.90;;;;;;4995040;28;20167;-74
2023/06/18 05:18:38;;;;;;;50.28;44.78;;;15.40;99.90;;;;;;5003532;28;20523;-75
2023/06/18 05:21:04;;;;;;;48.30;42.72;;;15.40;99.90;;;;;;5021771;28;20096;-75
2023/06/18 05:23:30;;;;;;;53.80;45.65;;;15.50;99.90;;;;;;5027751;28;20098;-74
2023/06/18 05:25:56;;;;;;;49.63;44.22;;;15.50;99.90;;;;;;5010586;28;20045;-75
2023/06/18 05:28:22;;;;;;;56.28;45.75;;;15.50;99.90;;;;;;5008851;28;20481;-74
2023/06/18 05:30:47;;;;;;;51.17;44.92;;;15.60;99.90;;;;;;5010186;28;20037;-74
2023/06/18 05:33:13;;;;;;;48.15;43.03;;;15.70;99.90;;;;;;5008974;28;20048;-75
2023/06/18 05:35:39;;;;;;;46.40;41.00;;;15.70;99.90;;;;;;4989935;28;20050;-75
2023/06/18 05:38:05;;;;;;;46.95;40.63;;;15.80;99.90;;;;;;4971649;28;20049;-74
2023/06/18 05:40:31;;;;;;;46.30;41.03;;;15.90;99.90;;;;;;5008206;28;22069;-74
2023/06/18 05:42:57;;;;;;;47.67;42.65;;;16.00;99.90;;;;;;4970164;28;20049;-80
2023/06/18 05:45:23;;;;;;;48.45;42.47;;;16.10;99.90;;;;;;4986363;28;20565;-80
2023/06/18 05:47:48;;;;;;;46.25;41.40;;;16.20;99.90;;;;;;4957069;28;20471;-80
2023/06/18 05:50:14;;;;;;;45.70;40.83;;;16.30;99.90;;;;;;4989060;28;20558;-80
2023/06/18 05:52:40;;;;;;;41.88;37.65;;;16.40;99.90;;;;;;4988395;28;20041;-80
2023/06/18 05:55:09;;;;;;;39.83;35.63;;;16.40;99.90;;;;;;5002529;28;20053;-79
2023/06/18 05:57:35;;;;;;;44.53;39.90;;;16.50;99.90;;;;;;5002414;28;20037;-79
2023/06/18 06:00:01;;;;;;;43.28;38.58;;;16.60;99.90;;;;;;5004219;28;20052;-79
2023/06/18 06:02:27;;;;;;;42.05;37.75;;;16.70;99.90;;;;;;4974662;28;20041;-79
2023/06/18 06:04:52;;;;;;;41.28;37.13;;;16.80;99.90;;;;;;4972110;28;20073;-79
2023/06/18 06:07:18;;;;;;;39.50;35.28;;;16.80;99.90;;;;;;4986114;28;20134;-79
2023/06/18 06:09:44;;;;;;;37.97;34.00;;;16.90;99.90;;;;;;4973588;28;20049;-79
2023/06/18 06:12:11;;;;;;;37.35;33.53;;;17.00;99.90;;;;;;4990817;28;20071;-79
2023/06/18 06:14:39;;;;;;;37.17;33.50;;;17.20;99.90;;;;;;5005532;28;20048;-79
2023/06/18 06:17:08;;;;;;;33.47;30.13;;;17.30;99.90;;;;;;4968638;28;20050;-79
2023/06/18 06:19:34;;;;;;;36.50;32.72;;;17.40;99.90;;;;;;4984288;28;20038;-74
2023/06/18 06:21:59;;;;;;;34.75;31.13;;;17.50;99.90;;;;;;4999158;28;20069;-74
2023/06/18 06:24:25;;;;;;;34.63;30.30;;;17.70;99.90;;;;;;4982159;28;20033;-75
2023/06/18 06:26:51;;;;;;;33.58;30.17;;;17.80;99.90;;;;;;4969633;28;20087;-74
2023/06/18 06:29:17;;;;;;;32.00;28.63;;;18.00;99.90;;;;;;4984569;28;20049;-75
2023/06/18 06:31:43;;;;;;;32.78;29.45;;;18.10;99.90;;;;;;4989759;28;20052;-74
2023/06/18 06:34:09;;;;;;;31.75;28.50;;;18.10;99.90;;;;;;4972766;28;20302;-75
2023/06/18 06:36:38;;;;;;;30.20;27.20;;;18.30;99.90;;;;;;4990499;28;20045;-75
2023/06/18 06:39:04;;;;;;;30.75;27.58;;;18.40;99.90;;;;;;5020595;28;20049;-75
2023/06/18 06:41:30;;;;;;;28.80;25.55;;;18.50;99.90;;;;;;5008443;28;20540;-75
2023/06/18 06:43:56;;;;;;;26.67;23.83;;;18.60;99.90;;;;;;5003924;28;20098;-74
2023/06/18 06:46:21;;;;;;;27.83;24.90;;;18.60;99.90;;;;;;5025812;28;20497;-75
2023/06/18 06:48:47;;;;;;;26.38;23.85;;;18.70;99.90;;;;;;5007872;28;20860;-75
2023/06/18 06:51:13;;;;;;;24.38;22.05;;;18.80;99.90;;;;;;5021048;28;20053;-75
2023/06/18 06:53:39;;;;;;;23.58;21.17;;;18.90;99.90;;;;;;4991709;28;20041;-75
2023/06/18 06:56:05;;;;;;;23.55;21.15;;;19.00;99.90;;;;;;5008525;28;20103;-75
2023/06/18 06:58:30;;;;;;;22.15;20.08;;;19.20;99.90;;;;;;5008574;28;20067;-75
2023/06/18 07:00:56;;;;;;;22.33;19.92;;;19.30;99.90;;;;;;5007740;28;20500;-75
2023/06/18 07:03:22;;;;;;;21.95;19.75;;;19.50;99.90;;;;;;5007541;28;20512;-74
2023/06/18 07:05:48;;;;;;;22.70;20.30;;;19.60;99.90;;;;;;5023454;28;20128;-75
2023/06/18 07:08:17;;;;;;;21.98;19.67;;;19.80;99.90;;;;;;5021706;28;20085;-74
2023/06/18 07:10:43;;;;;;;21.58;19.30;;;20.00;99.90;;;;;;5009826;28;20081;-75
2023/06/18 07:13:12;;;;;;;20.60;18.55;;;20.10;99.90;;;;;;4978820;28;20087;-74
2023/06/18 07:15:38;;;;;;;19.73;17.73;;;20.10;99.90;;;;;;5009225;28;20041;-75
2023/06/18 07:18:03;;;;;;;19.92;17.98;;;20.20;99.90;;;;;;5001722;28;20041;-75
2023/06/18 07:20:29;;;;;;;18.45;16.65;;;20.30;99.90;;;;;;5008144;28;20048;-75
2023/06/18 07:22:58;;;;;;;20.23;18.38;;;20.40;99.90;;;;;;5008371;28;20044;-75
2023/06/18 07:25:24;;;;;;;20.02;18.02;;;20.50;99.90;;;;;;5006250;28;20033;-75
2023/06/18 07:27:50;;;;;;;19.85;17.95;;;20.70;99.90;;;;;;5021849;28;20037;-74
2023/06/18 07:30:16;;;;;;;19.52;17.63;;;20.80;99.90;;;;;;5011136;28;20052;-74
2023/06/18 07:32:44;;;;;;;19.88;17.77;;;20.90;99.90;;;;;;5008836;28;20037;-75
2023/06/18 07:35:10;;;;;;;19.00;17.17;;;21.00;99.90;;;;;;4992185;28;20061;-75
2023/06/18 07:37:36;;;;;;;18.55;16.65;;;21.10;99.90;;;;;;5009182;28;20037;-75
2023/06/18 07:40:02;;;;;;;19.05;17.20;;;21.20;99.90;;;;;;5011744;28;20049;-75
2023/06/18 07:42:28;;;;;;;18.98;17.08;;;21.30;99.90;;;;;;5008729;28;20055;-74
2023/06/18 07:44:54;;;;;;;18.63;16.83;;;21.50;99.90;;;;;;4993517;28;20048;-75
2023/06/18 07:47:20;;;;;;;20.25;17.30;;;21.60;99.90;;;;;;5007309;28;20068;-75
2023/06/18 07:49:46;;;;;;;17.63;15.98;;;21.80;99.90;;;;;;4977409;28;20049;-74
2023/06/18 07:52:14;;;;;;;17.95;15.80;;;21.90;99.90;;;;;;5009791;28;20044;-75
2023/06/18 07:54:40;;;;;;;15.32;13.93;;;22.10;99.90;;;;;;5028294;28;20037;-74
2023/06/18 07:57:06;;;;;;;17.67;16.15;;;22.20;99.90;;;;;;5023313;28;20048;-75
2023/06/18 07:59:32;;;;;;;16.05;14.40;;;22.40;99.90;;;;;;5022680;28;20132;-75
2023/06/18 08:01:58;;;;;;;18.50;16.60;;;22.50;99.90;;;;;;5009634;28;20072;-75
2023/06/18 08:04:24;;;;;;;16.85;15.15;;;22.60;99.90;;;;;;5011200;28;20385;-74
2023/06/18 08:06:50;;;;;;;18.55;15.73;;;22.70;99.90;;;;;;5006336;28;20098;-75
2023/06/18 08:09:17;;;;;;;16.65;14.90;;;22.80;99.90;;;;;;5009105;28;20095;-75
2023/06/18 08:11:43;;;;;;;17.20;15.57;;;22.80;99.90;;;;;;4991476;28;20052;-75
2023/06/18 08:14:14;;;;;;;16.60;14.93;;;22.80;99.90;;;;;;5005300;28;20045;-75
2023/06/18 08:16:39;;;;;;;16.27;14.75;;;22.90;99.90;;;;;;5012228;28;20079;-73
2023/06/18 08:19:06;;;;;;;15.73;14.13;;;23.00;99.90;;;;;;5009920;28;20070;-74
2023/06/18 08:21:34;;;;;;;16.63;15.05;;;23.10;99.90;;;;;;5025854;28;20514;-74
2023/06/18 08:24:00;;;;;;;15.77;14.37;;;23.30;99.90;;;;;;5041069;28;20044;-74
2023/06/18 08:26:26;;;;;;;16.10;14.35;;;23.40;99.90;;;;;;5025451;28;20378;-74
2023/06/18 08:28:52;;;;;;;14.77;13.27;;;23.60;99.90;;;;;;5029402;28;20076;-73
2023/06/18 08:31:18;;;;;;;14.80;13.40;;;23.70;99.90;;;;;;5009081;28;20050;-74
2023/06/18 08:33:43;;;;;;;15.50;13.93;;;23.80;99.90;;;;;;5039973;28;20053;-73
2023/06/18 08:36:12;;;;;;;13.80;12.50;;;23.90;99.90;;;;;;4992993;28;20061;-73
2023/06/18 08:38:38;;;;;;;12.55;11.27;;;24.00;99.90;;;;;;4995562;28;20220;-73
2023/06/18 08:41:07;;;;;;;13.15;11.85;;;24.20;99.90;;;;;;5006818;28;20045;-74
2023/06/18 08:43:36;;;;;;;10.93;9.93;;;24.30;99.90;;;;;;5009684;28;20452;-74
2023/06/18 08:46:16;;;;;;;13.13;11.82;;;24.40;99.60;;;;;;5038839;28;20045;-74
2023/06/18 08:49:00;;;;;;;13.35;12.07;;;24.60;99.00;;;;;;5040420;28;20044;-74
2023/06/18 08:51:26;;;;;;;12.30;11.20;;;24.70;98.10;;;;;;5025338;28;20073;-74
2023/06/18 08:54:01;;;;;;;12.63;11.40;;;24.80;98.20;;;;;;5017600;28;20132;-74
2023/06/18 08:56:29;;;;;;;11.60;9.95;;;24.90;97.70;;;;;;5022544;28;20048;-74
2023/06/18 08:58:58;;;;;;;11.30;10.23;;;24.90;96.40;;;;;;5010538;28;20052;-74
2023/06/18 09:01:27;;;;;;;10.38;9.35;;;25.10;95.30;;;;;;5010745;28;20072;-73
2023/06/18 09:03:55;;;;;;;10.02;9.02;;;25.20;94.70;;;;;;5008928;28;20072;-74
2023/06/18 09:06:22;;;;;;;9.65;8.75;;;25.20;93.70;;;;;;5022340;28;20032;-73
2023/06/18 09:08:48;;;;;;;9.85;8.85;;;25.30;93.40;;;;;;5007870;28;20068;-73
2023/06/18 09:11:23;;;;;;;10.10;9.20;;;25.30;91.80;;;;;;5023410;28;20140;-74
2023/06/18 09:13:49;;;;;;;10.70;9.70;;;25.30;91.80;;;;;;5008358;28;20097;-74
2023/06/18 09:16:15;;;;;;;11.20;10.10;;;25.40;90.60;;;;;;5023467;28;20044;-74
2023/06/18 09:18:41;;;;;;;10.07;9.07;;;25.50;89.40;;;;;;5008749;28;20132;-74
2023/06/18 09:21:07;;;;;;;11.32;8.98;;;25.60;90.10;;;;;;4995258;28;20075;-73
2023/06/18 09:23:33;;;;;;;7.97;7.20;;;25.70;90.10;;;;;;5024947;28;20574;-73
2023/06/18 09:26:00;;;;;;;8.23;7.43;;;25.90;84.50;;;;;;5027011;28;20041;-74
2023/06/18 09:28:27;;;;;;;9.40;8.05;;;26.00;83.30;;;;;;5026670;28;20393;-74
2023/06/18 09:30:56;;;;;;;9.90;8.90;;;26.10;83.30;;;;;;5023577;28;20041;-73
2023/06/18 09:33:35;;;;;;;9.70;8.70;;;26.30;84.70;;;;;;5025136;28;20048;-74
2023/06/18 09:36:07;;;;;;;9.80;8.75;;;26.40;83.00;;;;;;5005417;28;20060;-74
2023/06/18 09:38:39;;;;;;;9.95;8.95;;;26.50;80.40;;;;;;5007481;28;20128;-73
2023/06/18 09:41:15;;;;;;;8.77;7.85;;;26.60;79.90;;;;;;4985806;28;20694;-73
2023/06/18 09:43:45;;;;;;;8.63;7.45;;;26.70;76.50;;;;;;5006604;28;20344;-74
2023/06/18 09:46:12;;;;;;;;;;;26.80;74.10;;;;;;5004957;28;20124;-73
2023/06/18 09:48:45;;;;;;;9.98;8.98;;;26.90;77.40;;;;;;4991512;28;19936;-74
2023/06/18 09:51:13;;;;;;;9.52;8.52;;;27.00;74.80;;;;;;4984412;28;20678;-74
2023/06/18 09:53:38;;;;;;;8.80;8.00;;;27.20;73.90;;;;;;5004142;28;20045;-73
2023/06/18 09:56:17;;;;;;;9.82;8.60;;;27.30;73.20;;;;;;5005470;28;20056;-73
2023/06/18 09:58:48;;;;;;;10.80;8.80;;;27.40;73.00;;;;;;5000872;28;20045;-74
2023/06/18 10:01:14;;;;;;;8.45;7.45;;;27.50;72.20;;;;;;5000414;28;20044;-74
2023/06/18 10:03:46;;;;;;;10.50;8.73;;;27.60;72.60;;;;;;5018479;28;20115;-74
2023/06/18 10:06:16;;;;;;;10.07;9.10;;;27.70;74.40;;;;;;4981782;28;20057;-73
2023/06/18 10:08:50;;;;;;;8.70;7.80;;;27.70;73.40;;;;;;4969501;28;20053;-73
2023/06/18 10:11:17;;;;;;;8.35;7.63;;;27.80;72.60;;;;;;4969667;28;21400;-74
2023/06/18 10:13:48;;;;;;;10.38;7.82;;;27.70;70.90;;;;;;5002323;28;20202;-73
2023/06/18 10:16:19;;;;;;;9.10;8.25;;;27.70;69.10;;;;;;5003361;28;20691;-73
2023/06/18 10:19:08;;;;;;;8.75;7.95;;;27.70;70.30;;;;;;5001819;28;20057;-74
2023/06/18 10:21:37;;;;;;;9.50;8.45;;;27.70;72.80;;;;;;5003259;28;20045;-74
2023/06/18 10:24:08;;;;;;;10.23;8.53;;;27.80;68.90;;;;;;5018792;28;20049;-73
2023/06/18 10:26:38;;;;;;;8.75;7.85;;;27.80;65.80;;;;;;4999058;28;20343;-73
2023/06/18 10:29:05;;;;;;;9.15;8.20;;;27.80;66.10;;;;;;5018995;28;20592;-73
2023/06/18 10:31:31;;;;;;;8.43;7.53;;;27.80;66.50;;;;;;4986248;28;20037;-73
2023/06/18 10:33:58;;;;;;;8.90;8.00;;;27.80;65.20;;;;;;5003203;28;20084;-73
2023/06/18 10:36:25;;;;;;;9.23;8.30;;;27.80;63.80;;;;;;4999495;28;20042;-73
2023/06/18 10:38:52;;;;;;;8.77;7.93;;;27.80;64.30;;;;;;4990265;28;20073;-74
2023/06/18 10:41:19;;;;;;;9.32;7.72;;;27.70;66.90;;;;;;4989013;28;20042;-73
2023/06/18 10:43:53;;;;;;;10.45;8.73;;;27.80;67.60;;;;;;5004840;28;20077;-73
2023/06/18 10:46:23;;;;;;;8.57;7.68;;;27.80;66.20;;;;;;4986444;28;20040;-73
2023/06/18 10:49:20;;;;;;;9.43;8.35;;;27.70;65.30;;;;;;5002893;28;20176;-74
2023/06/18 10:52:22;;;;;;;8.60;7.70;;;27.60;65.30;;;;;;4986845;28;20052;-73
2023/06/18 10:54:47;;;;;;;8.95;8.07;;;27.50;66.60;;;;;;4995060;28;20045;-74
2023/06/18 10:57:14;;;;;;;9.80;8.43;;;27.40;64.50;;;;;;4990073;28;20056;-73
2023/06/18 10:59:45;;;;;;;9.50;8.48;;;27.30;65.00;;;;;;4976286;28;20102;-73
2023/06/18 11:02:12;;;;;;;7.88;7.07;;;27.30;66.10;;;;;;5007070;28;20045;-74
2023/06/18 11:04:39;;;;;;;8.45;7.60;;;27.30;66.00;;;;;;4995257;28;20033;-73
2023/06/18 11:07:26;;;;;;;8.93;8.10;;;27.30;65.90;;;;;;5006297;28;20033;-74
2023/06/18 11:10:01;;;;;;;9.02;7.60;;;27.30;68.00;;;;;;5006207;28;20164;-74
2023/06/18 11:12:27;;;;;;;8.82;7.15;;;27.30;67.70;;;;;;5021397;28;20077;-73
2023/06/18 11:15:16;;;;;;;8.88;7.72;;;27.30;66.70;;;;;;5005359;28;20136;-74
2023/06/18 11:17:50;;;;;;;9.65;8.75;;;27.40;65.80;;;;;;5007135;28;20040;-74
2023/06/18 11:20:17;;;;;;;8.40;7.57;;;27.40;66.90;;;;;;4987729;28;20682;-74
2023/06/18 11:22:44;;;;;;;8.98;8.10;;;27.40;67.40;;;;;;5007885;28;20541;-75
2023/06/18 11:25:12;;;;;;;9.63;7.75;;;27.30;64.50;;;;;;4992158;28;20081;-74
2023/06/18 11:27:44;;;;;;;8.63;7.72;;;27.30;65.90;;;;;;4975082;28;20037;-75
2023/06/18 11:30:12;;;;;;;8.68;7.72;;;27.30;65.60;;;;;;5001395;28;20803;-74
2023/06/18 11:32:44;;;;;;;8.70;7.90;;;27.30;64.80;;;;;;4993270;28;20047;-75
2023/06/18 11:35:14;;;;;;;8.77;7.95;;;27.30;65.50;;;;;;5004751;28;20065;-74
2023/06/18 11:37:42;;;;;;;8.68;7.88;;;27.40;65.90;;;;;;5023413;28;20045;-75
2023/06/18 11:40:09;;;;;;;9.25;8.32;;;27.50;64.30;;;;;;5018304;28;20060;-75
2023/06/18 11:42:37;;;;;;;9.00;7.85;;;27.50;63.40;;;;;;4981382;28;20057;-75
2023/06/18 11:45:09;;;;;;;9.05;7.90;;;27.60;63.80;;;;;;4988163;28;20045;-74
2023/06/18 11:47:46;;;;;;;8.52;7.72;;;27.60;62.90;;;;;;4983368;28;20053;-74
2023/06/18 11:50:12;;;;;;;8.82;8.00;;;27.70;64.80;;;;;;5005351;28;20060;-74
2023/06/18 11:52:39;;;;;;;9.13;8.23;;;27.80;65.50;;;;;;5002949;28;20124;-74
2023/06/18 11:55:05;;;;;;;9.52;8.52;;;27.90;65.90;;;;;;4990609;28;20073;-75
2023/06/18 11:57:32;;;;;;;8.00;7.20;;;28.00;64.30;;;;;;5002238;28;20153;-74
2023/06/18 12:00:08;;;;;;;8.57;7.68;;;28.10;63.40;;;;;;4990263;28;20119;-74
2023/06/18 12:02:37;;;;;;;9.32;7.47;;;28.10;61.90;;;;;;5004597;28;20044;-74
2023/06/18 12:05:04;;;;;;;8.77;7.07;;;28.20;61.40;;;;;;4981981;28;20565;-75
2023/06/18 12:07:30;;;;;;;8.55;7.18;;;28.20;60.70;;;;;;5008178;28;20041;-74
2023/06/18 12:09:58;;;;;;;9.20;8.02;;;28.20;59.70;;;;;;5006397;28;20046;-73
2023/06/18 12:12:46;;;;;;;7.90;6.97;;;28.20;59.20;;;;;;4986755;28;20095;-73
2023/06/18 12:15:26;;;;;;;8.68;7.80;;;28.20;59.00;;;;;;5014649;28;20057;-74
2023/06/18 12:18:02;;;;;;;8.75;7.85;;;28.30;60.00;;;;;;5021132;28;20215;-73
2023/06/18 12:20:29;;;;;;;9.27;7.57;;;28.30;59.80;;;;;;5002747;28;20553;-73
2023/06/18 12:22:56;;;;;;;9.02;7.90;;;28.30;59.70;;;;;;4988259;28;20133;-74
2023/06/18 12:25:24;;;;;;;9.15;8.25;;;28.40;58.90;;;;;;5003059;28;20580;-74
2023/06/18 12:27:50;;;;;;;8.65;7.82;;;28.50;58.80;;;;;;5004888;28;20683;-74
2023/06/18 12:30:17;;;;;;;8.98;7.95;;;28.50;60.30;;;;;;5003128;28;20045;-73
2023/06/18 12:33:07;;;;;;;11.85;8.38;;;28.50;60.50;;;;;;4986278;28;20518;-74
2023/06/18 12:35:34;;;;;;;11.13;8.60;;;28.70;62.30;;;;;;5033095;28;20065;-74
2023/06/18 12:38:09;;;;;;;8.48;7.65;;;28.80;63.50;;;;;;5024491;28;20115;-73